sensor_id;sensor_type;location;lat;lon;timestamp;temperature;humidity
20041;DHT22;10181;48.072;9.884;2022-08-21T00:00:11;15.40;99.90
20041;DHT22;10181;48.072;9.884;2022-08-21T00:02:45;15.30;99.90
20041;DHT22;10181;48.072;9.884;2022-08-21T00:05:11;15.30;99.90
20041;DHT22;10181;48.072;9.884;2022-08-21T00:07:36;15.30;99.90
20041;DHT22;10181;48.072;9.884;2022-08-21T00:10:03;15.30;99.90
20041;DHT22;10181;48.072;9.884;2022-08-21T00:12:29;15.20;99.90
20041;DHT22;10181;48.072;9.884;2022-08-21T00:14:56;15.20;99.90
20041;DHT22;10181;48.072;9.884;2022-08-21T00:17:22;15.10;99.90
20041;DHT22;10181;48.072;9.884;2022-08-21T00:19:48;15.10;99.90
20041;DHT22;10181;48.072;9.884;2022-08-21T00:22:14;15.00;99.90
20041;DHT22;10181;48.072;9.884;2022-08-21T00:24:39;15.00;99.90
20041;DHT22;10181;48.072;9.884;2022-08-21T00:27:05;15.00;99.90
20041;DHT22;10181;48.072;9.884;2022-08-21T00:29:31;15.00;99.90
20041;DHT22;10181;48.072;9.884;2022-08-21T00:31:56;14.90;99.90
20041;DHT22;10181;48.072;9.884;2022-08-21T00:34:22;14.80;99.90
20041;DHT22;10181;48.072;9.884;2022-08-21T00:36:48;14.80;99.90
20041;DHT22;10181;48.072;9.884;2022-08-21T00:39:13;14.70;99.90
20041;DHT22;10181;48.072;9.884;2022-08-21T00:41:41;14.70;99.90
20041;DHT22;10181;48.072;9.884;2022-08-21T00:44:09;14.70;99.90
20041;DHT22;10181;48.072;9.884;2022-08-21T00:46:36;14.60;99.90
20041;DHT22;10181;48.072;9.884;2022-08-21T00:49:04;14.60;99.90
20041;DHT22;10181;48.072;9.884;2022-08-21T00:51:48;14.60;99.90
20041;DHT22;10181;48.072;9.884;2022-08-21T00:54:15;14.60;99.90
20041;DHT22;10181;48.072;9.884;2022-08-21T00:56:42;14.60;99.90
20041;DHT22;10181;48.072;9.884;2022-08-21T00:59:07;14.60;99.90
20041;DHT22;10181;48.072;9.884;2022-08-21T01:01:34;14.60;99.90
20041;DHT22;10181;48.072;9.884;2022-08-21T01:04:00;14.60;99.90
20041;DHT22;10181;48.072;9.884;2022-08-21T01:06:25;14.60;99.90
20041;DHT22;10181;48.072;9.884;2022-08-21T01:08:51;14.60;99.90
20041;DHT22;10181;48.072;9.884;2022-08-21T01:11:17;14.60;99.90
20041;DHT22;10181;48.072;9.884;2022-08-21T01:13:43;14.60;99.90
20041;DHT22;10181;48.072;9.884;2022-08-21T01:16:13;14.70;99.90
20041;DHT22;10181;48.072;9.884;2022-08-21T01:18:39;14.70;99.90
20041;DHT22;10181;48.072;9.884;2022-08-21T01:21:12;14.70;99.90
20041;DHT22;10181;48.072;9.884;2022-08-21T01:23:40;14.60;99.90
20041;DHT22;10181;48.072;9.884;2022-08-21T01:26:07;14.60;99.90
20041;DHT22;10181;48.072;9.884;2022-08-21T01:28:38;14.50;99.90
20041;DHT22;10181;48.072;9.884;2022-08-21T01:31:07;14.40;99.90
20041;DHT22;10181;48.072;9.884;2022-08-21T01:33:35;14.30;99.90
20041;DHT22;10181;48.072;9.884;2022-08-21T01:36:01;14.20;99.90
20041;DHT22;10181;48.072;9.884;2022-08-21T01:38:27;14.20;99.90
20041;DHT22;10181;48.072;9.884;2022-08-21T01:40:53;14.10;99.90
20041;DHT22;10181;48.072;9.884;2022-08-21T01:43:18;14.00;99.90
20041;DHT22;10181;48.072;9.884;2022-08-21T01:45:44;13.90;99.90
20041;DHT22;10181;48.072;9.884;2022-08-21T01:48:10;13.80;99.90
20041;DHT22;10181;48.072;9.884;2022-08-21T01:50:37;13.80;99.90
20041;DHT22;10181;48.072;9.884;2022-08-21T01:53:03;13.80;99.90
20041;DHT22;10181;48.072;9.884;2022-08-21T01:55:28;13.70;99.90
20041;DHT22;10181;48.072;9.884;2022-08-21T01:57:54;13.70;99.90
20041;DHT22;10181;48.072;9.884;2022-08-21T02:00:21;13.60;99.90
20041;DHT22;10181;48.072;9.884;2022-08-21T02:02:50;13.50;99.90
20041;DHT22;10181;48.072;9.884;2022-08-21T02:05:16;13.50;99.90
20041;DHT22;10181;48.072;9.884;2022-08-21T02:07:48;13.40;99.90
20041;DHT22;10181;48.072;9.884;2022-08-21T02:10:18;13.40;99.90
20041;DHT22;10181;48.072;9.884;2022-08-21T02:12:44;13.40;99.90
20041;DHT22;10181;48.072;9.884;2022-08-21T02:15:10;13.40;99.90
20041;DHT22;10181;48.072;9.884;2022-08-21T02:17:45;13.40;99.90
20041;DHT22;10181;48.072;9.884;2022-08-21T02:20:16;13.40;99.90
20041;DHT22;10181;48.072;9.884;2022-08-21T02:22:42;13.50;99.90
20041;DHT22;10181;48.072;9.884;2022-08-21T02:25:07;13.40;99.90
20041;DHT22;10181;48.072;9.884;2022-08-21T02:27:41;13.40;99.90
20041;DHT22;10181;48.072;9.884;2022-08-21T02:30:10;13.40;99.90
20041;DHT22;10181;48.072;9.884;2022-08-21T02:32:35;13.40;99.90
20041;DHT22;10181;48.072;9.884;2022-08-21T02:35:01;13.50;99.90
20041;DHT22;10181;48.072;9.884;2022-08-21T02:37:27;13.50;99.90
20041;DHT22;10181;48.072;9.884;2022-08-21T02:39:53;13.50;99.90
20041;DHT22;10181;48.072;9.884;2022-08-21T02:42:18;13.50;99.90
20041;DHT22;10181;48.072;9.884;2022-08-21T02:44:44;13.60;99.90
20041;DHT22;10181;48.072;9.884;2022-08-21T02:47:10;13.60;99.90
20041;DHT22;10181;48.072;9.884;2022-08-21T02:49:36;13.60;99.90
20041;DHT22;10181;48.072;9.884;2022-08-21T02:52:01;13.70;99.90
20041;DHT22;10181;48.072;9.884;2022-08-21T02:54:27;13.70;99.90
20041;DHT22;10181;48.072;9.884;2022-08-21T02:56:53;13.60;99.90
20041;DHT22;10181;48.072;9.884;2022-08-21T02:59:19;13.60;99.90
20041;DHT22;10181;48.072;9.884;2022-08-21T03:01:44;13.60;99.90
20041;DHT22;10181;48.072;9.884;2022-08-21T03:04:10;13.50;99.90
20041;DHT22;10181;48.072;9.884;2022-08-21T03:06:36;13.50;99.90
20041;DHT22;10181;48.072;9.884;2022-08-21T03:09:02;13.40;99.90
20041;DHT22;10181;48.072;9.884;2022-08-21T03:11:28;13.40;99.90
20041;DHT22;10181;48.072;9.884;2022-08-21T03:13:53;13.40;99.90
20041;DHT22;10181;48.072;9.884;2022-08-21T03:16:19;13.40;99.90
20041;DHT22;10181;48.072;9.884;2022-08-21T03:18:46;13.40;99.90
20041;DHT22;10181;48.072;9.884;2022-08-21T03:21:12;13.40;99.90
20041;DHT22;10181;48.072;9.884;2022-08-21T03:23:38;13.30;99.90
20041;DHT22;10181;48.072;9.884;2022-08-21T03:26:06;13.30;99.90
20041;DHT22;10181;48.072;9.884;2022-08-21T03:28:32;13.40;99.90
20041;DHT22;10181;48.072;9.884;2022-08-21T03:30:57;13.40;99.90
20041;DHT22;10181;48.072;9.884;2022-08-21T03:33:24;13.50;99.90
20041;DHT22;10181;48.072;9.884;2022-08-21T03:36:08;13.60;99.90
20041;DHT22;10181;48.072;9.884;2022-08-21T03:38:36;13.50;99.90
20041;DHT22;10181;48.072;9.884;2022-08-21T03:41:03;13.50;99.90
20041;DHT22;10181;48.072;9.884;2022-08-21T03:43:29;13.50;99.90
20041;DHT22;10181;48.072;9.884;2022-08-21T03:45:55;13.50;99.90
20041;DHT22;10181;48.072;9.884;2022-08-21T03:48:21;13.50;99.90
20041;DHT22;10181;48.072;9.884;2022-08-21T03:50:47;13.40;99.90
20041;DHT22;10181;48.072;9.884;2022-08-21T03:53:15;13.40;99.90
20041;DHT22;10181;48.072;9.884;2022-08-21T03:55:41;13.30;99.90
20041;DHT22;10181;48.072;9.884;2022-08-21T03:58:07;13.30;99.90
20041;DHT22;10181;48.072;9.884;2022-08-21T04:00:33;13.30;99.90
20041;DHT22;10181;48.072;9.884;2022-08-21T04:02:58;13.30;99.90
20041;DHT22;10181;48.072;9.884;2022-08-21T04:05:24;13.40;99.90
20041;DHT22;10181;48.072;9.884;2022-08-21T04:07:54;13.40;99.90
20041;DHT22;10181;48.072;9.884;2022-08-21T04:10:20;13.40;99.90
20041;DHT22;10181;48.072;9.884;2022-08-21T04:12:46;13.30;99.90
20041;DHT22;10181;48.072;9.884;2022-08-21T04:15:11;13.20;99.90
20041;DHT22;10181;48.072;9.884;2022-08-21T04:17:38;13.20;99.90
20041;DHT22;10181;48.072;9.884;2022-08-21T04:20:04;13.20;99.90
20041;DHT22;10181;48.072;9.884;2022-08-21T04:22:30;13.30;99.90
20041;DHT22;10181;48.072;9.884;2022-08-21T04:24:56;13.30;99.90
20041;DHT22;10181;48.072;9.884;2022-08-21T04:27:21;13.40;99.90
20041;DHT22;10181;48.072;9.884;2022-08-21T04:29:47;13.40;99.90
20041;DHT22;10181;48.072;9.884;2022-08-21T04:32:12;13.40;99.90
20041;DHT22;10181;48.072;9.884;2022-08-21T04:34:38;13.30;99.90
20041;DHT22;10181;48.072;9.884;2022-08-21T04:37:04;13.30;99.90
20041;DHT22;10181;48.072;9.884;2022-08-21T04:39:29;13.30;99.90
20041;DHT22;10181;48.072;9.884;2022-08-21T04:41:55;13.30;99.90
20041;DHT22;10181;48.072;9.884;2022-08-21T04:44:21;13.30;99.90
20041;DHT22;10181;48.072;9.884;2022-08-21T04:46:46;13.30;99.90
20041;DHT22;10181;48.072;9.884;2022-08-21T04:49:12;13.30;99.90
20041;DHT22;10181;48.072;9.884;2022-08-21T04:51:38;13.30;99.90
20041;DHT22;10181;48.072;9.884;2022-08-21T04:54:13;13.30;99.90
20041;DHT22;10181;48.072;9.884;2022-08-21T04:59:21;13.40;99.90
20041;DHT22;10181;48.072;9.884;2022-08-21T05:01:48;13.50;99.90
20041;DHT22;10181;48.072;9.884;2022-08-21T05:04:18;13.40;99.90
20041;DHT22;10181;48.072;9.884;2022-08-21T05:06:47;13.30;99.90
20041;DHT22;10181;48.072;9.884;2022-08-21T05:09:16;13.20;99.90
20041;DHT22;10181;48.072;9.884;2022-08-21T05:11:43;13.20;99.90
20041;DHT22;10181;48.072;9.884;2022-08-21T05:14:11;13.20;99.90
20041;DHT22;10181;48.072;9.884;2022-08-21T05:16:37;13.20;99.90
20041;DHT22;10181;48.072;9.884;2022-08-21T05:19:06;13.30;99.90
20041;DHT22;10181;48.072;9.884;2022-08-21T05:21:37;13.40;99.90
20041;DHT22;10181;48.072;9.884;2022-08-21T05:24:03;13.40;99.90
20041;DHT22;10181;48.072;9.884;2022-08-21T05:29:03;13.50;99.90
20041;DHT22;10181;48.072;9.884;2022-08-21T05:31:29;13.50;99.90
20041;DHT22;10181;48.072;9.884;2022-08-21T05:33:56;13.60;99.90
20041;DHT22;10181;48.072;9.884;2022-08-21T05:36:22;13.70;99.90
20041;DHT22;10181;48.072;9.884;2022-08-21T05:38:48;13.80;99.90
20041;DHT22;10181;48.072;9.884;2022-08-21T05:41:14;13.80;99.90
20041;DHT22;10181;48.072;9.884;2022-08-21T05:43:39;13.80;99.90
20041;DHT22;10181;48.072;9.884;2022-08-21T05:46:06;13.80;99.90
20041;DHT22;10181;48.072;9.884;2022-08-21T05:48:34;13.80;99.90
20041;DHT22;10181;48.072;9.884;2022-08-21T05:51:05;13.90;99.90
20041;DHT22;10181;48.072;9.884;2022-08-21T05:53:31;14.00;99.90
20041;DHT22;10181;48.072;9.884;2022-08-21T05:55:57;14.10;99.90
20041;DHT22;10181;48.072;9.884;2022-08-21T05:58:23;14.10;99.90
20041;DHT22;10181;48.072;9.884;2022-08-21T06:00:50;14.10;99.90
20041;DHT22;10181;48.072;9.884;2022-08-21T06:03:19;14.20;99.90
20041;DHT22;10181;48.072;9.884;2022-08-21T06:05:45;14.20;99.90
20041;DHT22;10181;48.072;9.884;2022-08-21T06:08:12;14.20;99.90
20041;DHT22;10181;48.072;9.884;2022-08-21T06:10:38;14.20;99.90
20041;DHT22;10181;48.072;9.884;2022-08-21T06:13:04;14.20;99.90
20041;DHT22;10181;48.072;9.884;2022-08-21T06:15:30;14.40;99.90
20041;DHT22;10181;48.072;9.884;2022-08-21T06:17:56;14.40;99.90
20041;DHT22;10181;48.072;9.884;2022-08-21T06:20:22;14.40;99.90
20041;DHT22;10181;48.072;9.884;2022-08-21T06:22:48;14.40;99.90
20041;DHT22;10181;48.072;9.884;2022-08-21T06:25:14;14.50;99.90
20041;DHT22;10181;48.072;9.884;2022-08-21T06:27:39;14.60;99.90
20041;DHT22;10181;48.072;9.884;2022-08-21T06:30:06;14.70;99.90
20041;DHT22;10181;48.072;9.884;2022-08-21T06:32:32;14.70;99.90
20041;DHT22;10181;48.072;9.884;2022-08-21T06:34:57;14.70;99.90
20041;DHT22;10181;48.072;9.884;2022-08-21T06:37:23;14.80;99.90
20041;DHT22;10181;48.072;9.884;2022-08-21T06:39:49;14.90;99.90
20041;DHT22;10181;48.072;9.884;2022-08-21T06:42:15;14.90;99.90
20041;DHT22;10181;48.072;9.884;2022-08-21T06:44:42;15.10;99.90
20041;DHT22;10181;48.072;9.884;2022-08-21T06:47:08;15.20;99.90
20041;DHT22;10181;48.072;9.884;2022-08-21T06:49:34;15.20;99.90
20041;DHT22;10181;48.072;9.884;2022-08-21T06:52:00;15.20;99.90
20041;DHT22;10181;48.072;9.884;2022-08-21T06:54:26;15.20;99.90
20041;DHT22;10181;48.072;9.884;2022-08-21T06:56:51;15.20;99.90
20041;DHT22;10181;48.072;9.884;2022-08-21T06:59:17;15.10;99.90
20041;DHT22;10181;48.072;9.884;2022-08-21T07:01:43;15.20;99.90
20041;DHT22;10181;48.072;9.884;2022-08-21T07:04:10;15.20;99.90
20041;DHT22;10181;48.072;9.884;2022-08-21T07:06:36;15.20;99.90
20041;DHT22;10181;48.072;9.884;2022-08-21T07:09:02;15.30;99.90
20041;DHT22;10181;48.072;9.884;2022-08-21T07:11:28;15.30;99.90
20041;DHT22;10181;48.072;9.884;2022-08-21T07:13:54;15.40;99.90
20041;DHT22;10181;48.072;9.884;2022-08-21T07:16:22;15.40;99.90
20041;DHT22;10181;48.072;9.884;2022-08-21T07:18:48;15.50;99.90
20041;DHT22;10181;48.072;9.884;2022-08-21T07:21:15;15.50;99.90
20041;DHT22;10181;48.072;9.884;2022-08-21T07:23:45;15.50;99.90
20041;DHT22;10181;48.072;9.884;2022-08-21T07:26:11;15.60;99.90
20041;DHT22;10181;48.072;9.884;2022-08-21T07:28:38;15.70;99.90
20041;DHT22;10181;48.072;9.884;2022-08-21T07:31:04;15.70;99.90
20041;DHT22;10181;48.072;9.884;2022-08-21T07:33:32;15.70;99.90
20041;DHT22;10181;48.072;9.884;2022-08-21T07:36:00;15.60;99.90
20041;DHT22;10181;48.072;9.884;2022-08-21T07:38:27;15.70;99.90
20041;DHT22;10181;48.072;9.884;2022-08-21T07:40:54;15.70;99.90
20041;DHT22;10181;48.072;9.884;2022-08-21T07:43:21;15.80;99.90
20041;DHT22;10181;48.072;9.884;2022-08-21T07:45:47;15.80;99.90
20041;DHT22;10181;48.072;9.884;2022-08-21T07:48:15;15.80;99.90
20041;DHT22;10181;48.072;9.884;2022-08-21T07:50:41;15.90;99.90
20041;DHT22;10181;48.072;9.884;2022-08-21T07:53:07;15.90;99.90
20041;DHT22;10181;48.072;9.884;2022-08-21T07:55:33;16.00;99.90
20041;DHT22;10181;48.072;9.884;2022-08-21T07:57:59;16.10;99.90
20041;DHT22;10181;48.072;9.884;2022-08-21T08:00:27;16.20;99.90
20041;DHT22;10181;48.072;9.884;2022-08-21T08:02:54;16.30;99.90
20041;DHT22;10181;48.072;9.884;2022-08-21T08:05:22;16.30;99.90
20041;DHT22;10181;48.072;9.884;2022-08-21T08:07:48;16.40;99.90
20041;DHT22;10181;48.072;9.884;2022-08-21T08:10:14;16.50;99.90
20041;DHT22;10181;48.072;9.884;2022-08-21T08:12:42;16.50;99.90
20041;DHT22;10181;48.072;9.884;2022-08-21T08:15:14;16.40;99.90
20041;DHT22;10181;48.072;9.884;2022-08-21T08:17:40;16.60;99.90
20041;DHT22;10181;48.072;9.884;2022-08-21T08:20:07;16.60;99.90
20041;DHT22;10181;48.072;9.884;2022-08-21T08:22:34;16.70;99.90
20041;DHT22;10181;48.072;9.884;2022-08-21T08:25:01;16.80;99.90
20041;DHT22;10181;48.072;9.884;2022-08-21T08:27:27;16.90;99.90
20041;DHT22;10181;48.072;9.884;2022-08-21T08:29:52;17.00;99.90
20041;DHT22;10181;48.072;9.884;2022-08-21T08:32:19;17.10;99.90
20041;DHT22;10181;48.072;9.884;2022-08-21T08:34:45;17.20;99.90
20041;DHT22;10181;48.072;9.884;2022-08-21T08:37:13;17.30;99.90
20041;DHT22;10181;48.072;9.884;2022-08-21T08:39:39;17.40;99.90
20041;DHT22;10181;48.072;9.884;2022-08-21T08:42:29;17.50;99.90
20041;DHT22;10181;48.072;9.884;2022-08-21T08:45:11;17.70;99.90
20041;DHT22;10181;48.072;9.884;2022-08-21T08:47:49;17.80;99.90
20041;DHT22;10181;48.072;9.884;2022-08-21T08:50:21;17.80;99.90
20041;DHT22;10181;48.072;9.884;2022-08-21T08:52:58;17.80;99.90
20041;DHT22;10181;48.072;9.884;2022-08-21T08:55:44;18.00;99.90
20041;DHT22;10181;48.072;9.884;2022-08-21T08:58:23;18.20;99.90
20041;DHT22;10181;48.072;9.884;2022-08-21T09:00:51;18.30;99.90
20041;DHT22;10181;48.072;9.884;2022-08-21T09:03:17;18.50;99.90
20041;DHT22;10181;48.072;9.884;2022-08-21T09:05:52;18.60;99.90
20041;DHT22;10181;48.072;9.884;2022-08-21T09:08:38;18.70;99.90
20041;DHT22;10181;48.072;9.884;2022-08-21T09:16:47;18.90;99.90
20041;DHT22;10181;48.072;9.884;2022-08-21T09:22:10;19.20;99.90
20041;DHT22;10181;48.072;9.884;2022-08-21T09:27:13;19.20;99.90
20041;DHT22;10181;48.072;9.884;2022-08-21T09:29:43;19.40;99.90
20041;DHT22;10181;48.072;9.884;2022-08-21T09:32:17;19.20;99.90
20041;DHT22;10181;48.072;9.884;2022-08-21T09:34:59;19.40;99.90
20041;DHT22;10181;48.072;9.884;2022-08-21T09:37:27;19.50;99.90
20041;DHT22;10181;48.072;9.884;2022-08-21T09:39:57;19.70;99.90
20041;DHT22;10181;48.072;9.884;2022-08-21T09:42:30;19.80;99.90
20041;DHT22;10181;48.072;9.884;2022-08-21T09:45:11;19.90;99.90
20041;DHT22;10181;48.072;9.884;2022-08-21T09:47:37;20.10;99.90
20041;DHT22;10181;48.072;9.884;2022-08-21T09:50:20;20.10;99.90
20041;DHT22;10181;48.072;9.884;2022-08-21T09:52:51;20.20;99.90
20041;DHT22;10181;48.072;9.884;2022-08-21T09:55:40;20.30;99.90
20041;DHT22;10181;48.072;9.884;2022-08-21T09:58:33;20.20;99.90
20041;DHT22;10181;48.072;9.884;2022-08-21T10:01:02;20.50;99.90
20041;DHT22;10181;48.072;9.884;2022-08-21T10:03:28;20.50;99.90
20041;DHT22;10181;48.072;9.884;2022-08-21T10:06:04;20.50;99.90
20041;DHT22;10181;48.072;9.884;2022-08-21T10:08:32;20.50;99.90
20041;DHT22;10181;48.072;9.884;2022-08-21T10:11:10;20.40;99.90
20041;DHT22;10181;48.072;9.884;2022-08-21T10:13:59;20.30;99.90
20041;DHT22;10181;48.072;9.884;2022-08-21T10:19:45;20.30;99.90
20041;DHT22;10181;48.072;9.884;2022-08-21T10:24:52;20.40;99.90
20041;DHT22;10181;48.072;9.884;2022-08-21T10:30:09;20.20;99.90
20041;DHT22;10181;48.072;9.884;2022-08-21T10:33:09;20.30;99.90
20041;DHT22;10181;48.072;9.884;2022-08-21T10:35:42;20.20;99.90
20041;DHT22;10181;48.072;9.884;2022-08-21T10:41:14;20.00;99.90
20041;DHT22;10181;48.072;9.884;2022-08-21T10:55:08;20.60;99.90
20041;DHT22;10181;48.072;9.884;2022-08-21T10:57:46;20.60;99.90
20041;DHT22;10181;48.072;9.884;2022-08-21T11:00:17;20.80;99.90
20041;DHT22;10181;48.072;9.884;2022-08-21T11:03:07;20.70;99.90
20041;DHT22;10181;48.072;9.884;2022-08-21T11:05:41;20.90;99.90
20041;DHT22;10181;48.072;9.884;2022-08-21T11:08:29;21.00;99.90
20041;DHT22;10181;48.072;9.884;2022-08-21T11:11:05;21.10;99.90
20041;DHT22;10181;48.072;9.884;2022-08-21T11:16:25;21.20;99.90
20041;DHT22;10181;48.072;9.884;2022-08-21T11:24:52;21.30;99.90
20041;DHT22;10181;48.072;9.884;2022-08-21T11:30:03;21.30;99.90
20041;DHT22;10181;48.072;9.884;2022-08-21T11:35:55;21.40;99.90
20041;DHT22;10181;48.072;9.884;2022-08-21T11:41:08;21.60;99.90
20041;DHT22;10181;48.072;9.884;2022-08-21T11:43:47;21.80;99.90
20041;DHT22;10181;48.072;9.884;2022-08-21T11:50:18;21.90;99.90
20041;DHT22;10181;48.072;9.884;2022-08-21T11:52:15;21.80;99.90
20041;DHT22;10181;48.072;9.884;2022-08-21T11:54:57;21.70;99.90
20041;DHT22;10181;48.072;9.884;2022-08-21T12:02:29;21.80;99.90
20041;DHT22;10181;48.072;9.884;2022-08-21T12:05:00;21.80;99.90
20041;DHT22;10181;48.072;9.884;2022-08-21T12:07:39;21.90;99.90
20041;DHT22;10181;48.072;9.884;2022-08-21T12:10:10;21.90;99.90
20041;DHT22;10181;48.072;9.884;2022-08-21T12:12:39;22.10;99.90
20041;DHT22;10181;48.072;9.884;2022-08-21T12:17:39;22.20;99.90
20041;DHT22;10181;48.072;9.884;2022-08-21T12:20:34;22.30;99.90
20041;DHT22;10181;48.072;9.884;2022-08-21T12:25:44;22.20;99.90
20041;DHT22;10181;48.072;9.884;2022-08-21T12:28:15;22.20;99.90
20041;DHT22;10181;48.072;9.884;2022-08-21T12:30:46;22.10;99.90
20041;DHT22;10181;48.072;9.884;2022-08-21T12:33:32;21.90;99.90
20041;DHT22;10181;48.072;9.884;2022-08-21T12:36:05;21.80;99.90
20041;DHT22;10181;48.072;9.884;2022-08-21T12:38:50;21.90;99.90
20041;DHT22;10181;48.072;9.884;2022-08-21T12:41:24;22.00;99.90
20041;DHT22;10181;48.072;9.884;2022-08-21T12:43:58;22.10;99.90
20041;DHT22;10181;48.072;9.884;2022-08-21T12:46:32;22.20;99.90
20041;DHT22;10181;48.072;9.884;2022-08-21T12:49:36;22.10;99.90
20041;DHT22;10181;48.072;9.884;2022-08-21T12:52:21;21.90;99.90
20041;DHT22;10181;48.072;9.884;2022-08-21T12:54:47;21.70;99.90
20041;DHT22;10181;48.072;9.884;2022-08-21T12:57:25;21.70;99.90
20041;DHT22;10181;48.072;9.884;2022-08-21T13:00:04;21.70;99.90
20041;DHT22;10181;48.072;9.884;2022-08-21T13:02:36;21.80;99.90
20041;DHT22;10181;48.072;9.884;2022-08-21T13:05:06;21.90;99.90
20041;DHT22;10181;48.072;9.884;2022-08-21T13:07:35;22.10;99.90
20041;DHT22;10181;48.072;9.884;2022-08-21T13:12:44;22.20;99.90
20041;DHT22;10181;48.072;9.884;2022-08-21T13:15:11;22.40;99.90
20041;DHT22;10181;48.072;9.884;2022-08-21T13:17:42;22.40;99.90
20041;DHT22;10181;48.072;9.884;2022-08-21T13:20:21;22.50;99.90
20041;DHT22;10181;48.072;9.884;2022-08-21T13:22:47;22.50;99.90
20041;DHT22;10181;48.072;9.884;2022-08-21T13:25:16;22.60;99.90
20041;DHT22;10181;48.072;9.884;2022-08-21T13:27:55;22.60;99.90
20041;DHT22;10181;48.072;9.884;2022-08-21T13:30:22;22.60;99.90
20041;DHT22;10181;48.072;9.884;2022-08-21T13:32:55;22.70;99.90
20041;DHT22;10181;48.072;9.884;2022-08-21T13:35:23;22.80;99.90
20041;DHT22;10181;48.072;9.884;2022-08-21T13:37:51;23.00;99.90
20041;DHT22;10181;48.072;9.884;2022-08-21T13:40:23;23.20;99.90
20041;DHT22;10181;48.072;9.884;2022-08-21T13:42:50;23.20;99.90
20041;DHT22;10181;48.072;9.884;2022-08-21T13:45:23;23.10;99.90
20041;DHT22;10181;48.072;9.884;2022-08-21T13:47:50;23.10;99.00
20041;DHT22;10181;48.072;9.884;2022-08-21T13:50:18;23.10;99.90
20041;DHT22;10181;48.072;9.884;2022-08-21T13:53:04;23.10;99.90
20041;DHT22;10181;48.072;9.884;2022-08-21T13:55:41;23.00;99.90
20041;DHT22;10181;48.072;9.884;2022-08-21T13:58:08;23.00;95.10
20041;DHT22;10181;48.072;9.884;2022-08-21T14:00:47;22.90;99.40
20041;DHT22;10181;48.072;9.884;2022-08-21T14:03:31;23.00;99.20
20041;DHT22;10181;48.072;9.884;2022-08-21T14:05:58;23.00;98.00
20041;DHT22;10181;48.072;9.884;2022-08-21T14:08:34;23.00;95.30
20041;DHT22;10181;48.072;9.884;2022-08-21T14:11:03;23.00;98.60
20041;DHT22;10181;48.072;9.884;2022-08-21T14:13:38;23.10;99.90
20041;DHT22;10181;48.072;9.884;2022-08-21T14:16:21;23.10;99.90
20041;DHT22;10181;48.072;9.884;2022-08-21T14:19:09;23.20;94.90
20041;DHT22;10181;48.072;9.884;2022-08-21T14:21:42;23.00;97.80
20041;DHT22;10181;48.072;9.884;2022-08-21T14:24:31;22.90;99.90
20041;DHT22;10181;48.072;9.884;2022-08-21T14:27:05;22.80;99.90
20041;DHT22;10181;48.072;9.884;2022-08-21T14:29:38;22.70;99.90
20041;DHT22;10181;48.072;9.884;2022-08-21T14:32:14;22.60;99.90
20041;DHT22;10181;48.072;9.884;2022-08-21T14:34:40;22.60;99.90
20041;DHT22;10181;48.072;9.884;2022-08-21T14:37:06;22.70;99.70
20041;DHT22;10181;48.072;9.884;2022-08-21T14:39:31;22.80;99.40
20041;DHT22;10181;48.072;9.884;2022-08-21T14:41:58;22.80;96.20
20041;DHT22;10181;48.072;9.884;2022-08-21T14:44:24;23.00;97.60
20041;DHT22;10181;48.072;9.884;2022-08-21T14:46:50;23.00;94.50
20041;DHT22;10181;48.072;9.884;2022-08-21T14:49:16;23.10;92.70
20041;DHT22;10181;48.072;9.884;2022-08-21T14:51:41;23.10;91.50
20041;DHT22;10181;48.072;9.884;2022-08-21T14:54:07;23.10;91.30
20041;DHT22;10181;48.072;9.884;2022-08-21T14:56:34;23.10;94.40
20041;DHT22;10181;48.072;9.884;2022-08-21T14:59:04;23.20;93.40
20041;DHT22;10181;48.072;9.884;2022-08-21T15:01:33;23.30;99.90
20041;DHT22;10181;48.072;9.884;2022-08-21T15:03:59;23.30;99.90
20041;DHT22;10181;48.072;9.884;2022-08-21T15:06:25;23.20;94.00
20041;DHT22;10181;48.072;9.884;2022-08-21T15:08:50;23.10;96.10
20041;DHT22;10181;48.072;9.884;2022-08-21T15:11:19;23.10;92.70
20041;DHT22;10181;48.072;9.884;2022-08-21T15:13:45;23.10;92.20
20041;DHT22;10181;48.072;9.884;2022-08-21T15:16:12;23.20;99.90
20041;DHT22;10181;48.072;9.884;2022-08-21T15:18:38;23.30;99.90
20041;DHT22;10181;48.072;9.884;2022-08-21T15:21:04;23.30;99.90
20041;DHT22;10181;48.072;9.884;2022-08-21T15:23:30;23.20;94.60
20041;DHT22;10181;48.072;9.884;2022-08-21T15:25:56;23.30;99.90
20041;DHT22;10181;48.072;9.884;2022-08-21T15:28:23;23.30;99.90
20041;DHT22;10181;48.072;9.884;2022-08-21T15:30:50;23.30;99.90
20041;DHT22;10181;48.072;9.884;2022-08-21T15:33:16;23.30;93.90
20041;DHT22;10181;48.072;9.884;2022-08-21T15:35:42;23.30;92.60
20041;DHT22;10181;48.072;9.884;2022-08-21T15:38:08;23.40;99.90
20041;DHT22;10181;48.072;9.884;2022-08-21T15:40:35;23.40;99.90
20041;DHT22;10181;48.072;9.884;2022-08-21T15:43:03;23.40;97.90
20041;DHT22;10181;48.072;9.884;2022-08-21T15:45:30;23.40;99.90
20041;DHT22;10181;48.072;9.884;2022-08-21T15:47:57;23.40;99.00
20041;DHT22;10181;48.072;9.884;2022-08-21T15:50:24;23.40;99.80
20041;DHT22;10181;48.072;9.884;2022-08-21T15:52:50;23.40;99.90
20041;DHT22;10181;48.072;9.884;2022-08-21T15:55:16;23.40;94.20
20041;DHT22;10181;48.072;9.884;2022-08-21T15:57:48;23.40;96.00
20041;DHT22;10181;48.072;9.884;2022-08-21T16:00:21;23.30;97.60
20041;DHT22;10181;48.072;9.884;2022-08-21T16:02:53;23.40;98.40
20041;DHT22;10181;48.072;9.884;2022-08-21T16:05:21;23.50;99.90
20041;DHT22;10181;48.072;9.884;2022-08-21T16:07:48;23.40;94.20
20041;DHT22;10181;48.072;9.884;2022-08-21T16:10:15;23.50;99.90
20041;DHT22;10181;48.072;9.884;2022-08-21T16:12:49;23.50;99.90
20041;DHT22;10181;48.072;9.884;2022-08-21T16:15:16;23.30;94.00
20041;DHT22;10181;48.072;9.884;2022-08-21T16:17:44;23.30;94.30
20041;DHT22;10181;48.072;9.884;2022-08-21T16:20:16;23.30;93.30
20041;DHT22;10181;48.072;9.884;2022-08-21T16:22:43;23.20;97.60
20041;DHT22;10181;48.072;9.884;2022-08-21T16:25:09;23.40;99.90
20041;DHT22;10181;48.072;9.884;2022-08-21T16:27:35;23.50;99.90
20041;DHT22;10181;48.072;9.884;2022-08-21T16:30:02;23.40;96.40
20041;DHT22;10181;48.072;9.884;2022-08-21T16:32:28;23.40;93.10
20041;DHT22;10181;48.072;9.884;2022-08-21T16:34:54;23.40;94.70
20041;DHT22;10181;48.072;9.884;2022-08-21T16:37:20;23.50;99.90
20041;DHT22;10181;48.072;9.884;2022-08-21T16:39:47;23.60;99.90
20041;DHT22;10181;48.072;9.884;2022-08-21T16:42:16;23.70;99.90
20041;DHT22;10181;48.072;9.884;2022-08-21T16:44:42;23.90;99.90
20041;DHT22;10181;48.072;9.884;2022-08-21T16:47:08;24.10;99.50
20041;DHT22;10181;48.072;9.884;2022-08-21T16:49:34;24.20;99.90
20041;DHT22;10181;48.072;9.884;2022-08-21T16:52:00;24.40;99.90
20041;DHT22;10181;48.072;9.884;2022-08-21T16:54:27;24.60;99.90